createdAt,value
2018-04-07T00:00:20.404Z,100948
2018-04-07T00:02:48.470Z,100943
2018-04-07T00:05:16.559Z,100941
2018-04-07T00:07:45.004Z,100951
2018-04-07T00:10:13.098Z,100941
2018-04-07T00:12:41.190Z,100947
2018-04-07T00:15:09.296Z,100939
2018-04-07T00:17:37.395Z,100937
2018-04-07T00:20:05.485Z,100939
2018-04-07T00:22:33.566Z,100939
2018-04-07T00:25:01.652Z,100936
2018-04-07T00:27:29.780Z,100932
2018-04-07T00:29:57.859Z,100931
2018-04-07T00:32:25.994Z,100933
2018-04-07T00:34:54.075Z,100936
2018-04-07T00:37:22.171Z,100927
2018-04-07T00:39:50.260Z,100931
2018-04-07T00:42:18.337Z,100939
2018-04-07T00:44:46.455Z,100936
2018-04-07T00:47:14.553Z,100936
2018-04-07T00:49:42.700Z,100940
2018-04-07T00:52:10.773Z,100939
2018-04-07T00:54:38.972Z,100932
2018-04-07T00:57:07.047Z,100942
2018-04-07T00:59:35.162Z,100924
2018-04-07T01:02:03.288Z,100933
2018-04-07T01:04:31.372Z,100927
2018-04-07T01:06:59.521Z,100924
2018-04-07T01:09:27.598Z,100929
2018-04-07T01:11:55.692Z,100931
2018-04-07T01:14:23.803Z,100926
2018-04-07T01:16:51.915Z,100919
2018-04-07T01:19:19.993Z,100923
2018-04-07T01:21:48.119Z,100912
2018-04-07T01:24:16.195Z,100908
2018-04-07T01:26:44.275Z,100905
2018-04-07T01:29:12.388Z,100906
2018-04-07T01:31:40.458Z,100901
2018-04-07T01:34:08.531Z,100918
2018-04-07T01:36:36.610Z,100913
2018-04-07T01:39:04.818Z,100912
2018-04-07T01:41:32.941Z,100916
2018-04-07T01:44:01.031Z,100921
2018-04-07T01:46:29.150Z,100914
2018-04-07T01:48:57.254Z,100906
2018-04-07T01:51:25.356Z,100910
2018-04-07T01:53:53.458Z,100905
2018-04-07T01:56:21.547Z,100900
2018-04-07T01:58:49.644Z,100893
2018-04-07T02:01:17.783Z,100890
2018-04-07T02:03:45.872Z,100894
2018-04-07T02:06:13.982Z,100891
2018-04-07T02:08:42.034Z,100901
2018-04-07T02:11:10.113Z,100901
2018-04-07T02:13:38.190Z,100904
2018-04-07T02:16:06.242Z,100892
2018-04-07T02:18:34.359Z,100891
2018-04-07T02:21:02.441Z,100883
2018-04-07T02:23:30.734Z,100889
2018-04-07T02:25:58.816Z,100879
2018-04-07T02:28:26.891Z,100871
2018-04-07T02:30:54.979Z,100869
2018-04-07T02:33:23.067Z,100876
2018-04-07T02:35:51.141Z,100881
2018-04-07T02:38:19.434Z,100878
2018-04-07T02:40:47.486Z,100881
2018-04-07T02:43:15.588Z,100879
2018-04-07T02:45:43.670Z,100866
2018-04-07T02:48:11.800Z,100876
2018-04-07T02:50:39.875Z,100879
2018-04-07T02:53:07.950Z,100880
2018-04-07T02:55:36.178Z,100882
2018-04-07T02:58:04.263Z,100883
2018-04-07T03:00:32.351Z,100867
2018-04-07T03:03:00.429Z,100874
2018-04-07T03:05:28.546Z,100869
2018-04-07T03:07:56.651Z,100873
2018-04-07T03:10:24.785Z,100870
2018-04-07T03:12:52.994Z,100869
2018-04-07T03:15:21.067Z,100867
2018-04-07T03:17:49.169Z,100877
2018-04-07T03:20:17.277Z,100880
2018-04-07T03:22:45.360Z,100876
2018-04-07T03:25:13.461Z,100863
2018-04-07T03:27:41.541Z,100865
2018-04-07T03:30:09.639Z,100857
2018-04-07T03:32:37.738Z,100858
2018-04-07T03:35:05.852Z,100847
2018-04-07T03:37:33.965Z,100850
2018-04-07T03:40:02.051Z,100844
2018-04-07T03:42:30.139Z,100859
2018-04-07T03:44:58.250Z,100851
2018-04-07T03:47:26.343Z,100851
2018-04-07T03:49:54.629Z,100860
2018-04-07T03:52:22.830Z,100853
2018-04-07T03:54:51.103Z,100866
2018-04-07T03:57:19.186Z,100856
2018-04-07T03:59:47.541Z,100861
2018-04-07T04:02:15.655Z,100863
2018-04-07T04:04:43.751Z,100859
2018-04-07T04:07:11.850Z,100863
2018-04-07T04:09:39.910Z,100866
2018-04-07T04:12:08.005Z,100862
2018-04-07T04:14:36.173Z,100856
2018-04-07T04:17:04.245Z,100865
2018-04-07T04:19:32.327Z,100851
2018-04-07T04:22:00.432Z,100849
2018-04-07T04:24:28.572Z,100862
2018-04-07T04:26:56.658Z,100857
2018-04-07T04:29:24.803Z,100858
2018-04-07T04:31:52.994Z,100862
2018-04-07T04:34:21.063Z,100855
2018-04-07T04:36:49.291Z,100855
2018-04-07T04:39:17.396Z,100844
2018-04-07T04:41:45.504Z,100845
2018-04-07T04:44:13.581Z,100838
2018-04-07T04:46:41.711Z,100829
2018-04-07T04:49:09.879Z,100818
2018-04-07T04:51:37.976Z,100817
2018-04-07T04:54:06.083Z,100812
2018-04-07T04:56:34.482Z,100819
2018-04-07T04:59:02.778Z,100766
2018-04-07T05:01:30.887Z,100818
2018-04-07T05:03:59.233Z,100813
2018-04-07T05:06:27.706Z,100811
2018-04-07T05:08:55.807Z,100819
2018-04-07T05:11:24.190Z,100828
2018-04-07T05:13:52.427Z,100819
2018-04-07T05:16:20.534Z,100824
2018-04-07T05:18:49.002Z,100821
2018-04-07T05:21:17.241Z,100830
2018-04-07T05:23:45.330Z,100831
2018-04-07T05:26:13.768Z,100832
2018-04-07T05:28:42.298Z,100836
2018-04-07T05:31:10.636Z,100823
2018-04-07T05:33:38.765Z,100829
2018-04-07T05:36:06.846Z,100811
2018-04-07T05:38:35.048Z,100807
2018-04-07T05:41:03.159Z,100818
2018-04-07T05:43:31.256Z,100827
2018-04-07T05:45:59.351Z,100808
2018-04-07T05:48:27.539Z,100812
2018-04-07T05:50:55.616Z,100807
2018-04-07T05:53:23.804Z,100809
2018-04-07T05:55:52.074Z,100810
2018-04-07T05:58:20.169Z,100814
2018-04-07T06:00:48.282Z,100808
2018-04-07T06:03:16.386Z,100816
2018-04-07T06:05:44.876Z,100758
2018-04-07T06:08:12.973Z,100810
2018-04-07T06:10:41.087Z,100811
2018-04-07T06:13:09.324Z,100805
2018-04-07T06:15:37.799Z,100813
2018-04-07T06:18:05.895Z,100818
2018-04-07T06:20:34.152Z,100823
2018-04-07T06:23:02.634Z,100820
2018-04-07T06:25:30.998Z,100812
2018-04-07T06:27:59.472Z,100808
2018-04-07T06:30:27.638Z,100804
2018-04-07T06:32:55.832Z,100803
2018-04-07T06:35:24.067Z,100799
2018-04-07T06:37:52.242Z,100796
2018-04-07T06:40:20.346Z,100784
2018-04-07T06:42:48.476Z,100801
2018-04-07T06:45:16.895Z,100784
2018-04-07T06:47:45.142Z,100780
2018-04-07T06:50:13.226Z,100779
2018-04-07T06:52:41.300Z,100781
2018-04-07T06:55:09.408Z,100782
2018-04-07T06:57:37.611Z,100777
2018-04-07T07:00:05.867Z,100783
2018-04-07T07:02:34.079Z,100780
2018-04-07T07:05:02.681Z,100781
2018-04-07T07:07:30.762Z,100775
2018-04-07T07:09:58.871Z,100771
2018-04-07T07:12:27.402Z,100778
2018-04-07T07:14:55.665Z,100767
2018-04-07T07:17:23.777Z,100777
2018-04-07T07:19:52.024Z,100769
2018-04-07T07:22:20.163Z,100757
2018-04-07T07:24:48.243Z,100742
2018-04-07T07:27:16.340Z,100755
2018-04-07T07:29:44.858Z,100755
2018-04-07T07:32:13.301Z,100770
2018-04-07T07:34:41.434Z,100751
2018-04-07T07:37:09.598Z,100744
2018-04-07T07:39:37.821Z,100754
2018-04-07T07:42:06.228Z,100754
2018-04-07T07:44:34.460Z,100748
2018-04-07T07:47:02.676Z,100742
2018-04-07T07:49:30.865Z,100730
2018-04-07T07:51:59.201Z,100740
2018-04-07T07:54:27.698Z,100734
2018-04-07T07:56:56.243Z,100723
2018-04-07T07:59:24.482Z,100729
2018-04-07T08:01:52.651Z,100729
2018-04-07T08:04:20.972Z,100720
2018-04-07T08:06:49.365Z,100719
2018-04-07T08:09:18.345Z,100724
2018-04-07T08:11:46.490Z,100701
2018-04-07T08:14:14.755Z,100704
2018-04-07T08:16:42.888Z,100691
2018-04-07T08:19:11.296Z,100697
2018-04-07T08:21:39.398Z,100695
2018-04-07T08:24:07.809Z,100707
2018-04-07T08:26:35.913Z,100700
2018-04-07T08:29:04.188Z,100712
2018-04-07T08:31:32.728Z,100725
2018-04-07T08:34:01.072Z,100723
2018-04-07T08:36:29.336Z,100723
2018-04-07T08:38:57.870Z,100723
2018-04-07T08:41:26.079Z,100733
2018-04-07T08:43:54.358Z,100716
2018-04-07T08:46:22.562Z,100711
2018-04-07T08:48:50.804Z,100718
2018-04-07T08:51:18.940Z,100720
2018-04-07T08:53:47.304Z,100717
2018-04-07T08:56:15.981Z,100724
2018-04-07T08:58:44.566Z,100722
2018-04-07T09:01:12.682Z,100710
2018-04-07T09:03:40.839Z,100718
2018-04-07T09:06:08.956Z,100705
2018-04-07T09:08:37.248Z,100706
2018-04-07T09:11:05.350Z,100706
2018-04-07T09:13:33.714Z,100706
2018-04-07T09:16:01.900Z,100693
2018-04-07T09:18:30.184Z,100715
2018-04-07T09:20:58.461Z,100702
2018-04-07T09:23:26.702Z,100697
2018-04-07T09:25:55.216Z,100701
2018-04-07T09:28:23.520Z,100702
2018-04-07T09:30:51.808Z,100689
2018-04-07T09:33:20.343Z,100691
2018-04-07T09:35:48.486Z,100680
2018-04-07T09:38:17.983Z,100685
2018-04-07T09:40:46.120Z,100682
2018-04-07T09:43:14.315Z,100688
2018-04-07T09:45:42.652Z,100682
2018-04-07T09:48:10.746Z,100679
2018-04-07T09:50:38.873Z,100679
2018-04-07T09:53:07.289Z,100683
2018-04-07T09:55:35.444Z,100683
2018-04-07T09:58:03.579Z,100682
2018-04-07T10:00:31.818Z,100692
2018-04-07T10:03:00.805Z,100680
2018-04-07T10:05:28.960Z,100678
2018-04-07T10:07:57.633Z,100670
2018-04-07T10:10:25.772Z,100669
2018-04-07T10:12:53.882Z,100674
2018-04-07T10:15:21.967Z,100671
2018-04-07T10:17:50.171Z,100664
2018-04-07T10:20:18.593Z,100653
2018-04-07T10:22:46.755Z,100643
2018-04-07T10:25:15.276Z,100661
2018-04-07T10:27:43.513Z,100664
2018-04-07T10:30:12.097Z,100660
2018-04-07T10:32:40.274Z,100650
2018-04-07T10:35:08.574Z,100655
2018-04-07T10:37:36.943Z,100657
2018-04-07T10:40:05.822Z,100655
2018-04-07T10:42:33.932Z,100655
2018-04-07T10:45:02.100Z,100668
2018-04-07T10:47:30.487Z,100643
2018-04-07T10:49:58.627Z,100655
2018-04-07T10:52:26.777Z,100660
2018-04-07T10:54:55.304Z,100655
2018-04-07T10:57:23.430Z,100647
2018-04-07T10:59:51.614Z,100645
2018-04-07T11:02:19.989Z,100639
2018-04-07T11:04:49.089Z,100642
2018-04-07T11:07:17.372Z,100633
2018-04-07T11:09:45.481Z,100629
2018-04-07T11:12:13.592Z,100644
2018-04-07T11:14:41.901Z,100626
2018-04-07T11:17:10.251Z,100643
2018-04-07T11:19:38.663Z,100623
2018-04-07T11:22:06.760Z,100635
2018-04-07T11:24:35.438Z,100609
2018-04-07T11:27:03.606Z,100608
2018-04-07T11:29:31.751Z,100611
2018-04-07T11:32:00.236Z,100606
2018-04-07T11:34:28.525Z,100599
2018-04-07T11:36:56.817Z,100600
2018-04-07T11:39:25.014Z,100588
2018-04-07T11:41:53.119Z,100591
2018-04-07T11:44:21.659Z,100592
2018-04-07T11:46:49.913Z,100591
2018-04-07T11:49:18.020Z,100583
2018-04-07T11:51:46.175Z,100587
2018-04-07T11:54:14.516Z,100586
2018-04-07T11:56:42.841Z,100581
2018-04-07T11:59:11.169Z,100567
2018-04-07T12:01:39.599Z,100570
2018-04-07T12:04:07.765Z,100570
2018-04-07T12:06:36.219Z,100578
2018-04-07T12:09:04.485Z,100569
2018-04-07T12:11:32.737Z,100570
2018-04-07T12:14:01.116Z,100570
2018-04-07T12:16:29.338Z,100572
2018-04-07T12:18:57.857Z,100576
2018-04-07T12:21:26.247Z,100573
2018-04-07T12:23:54.882Z,100567
2018-04-07T12:26:22.967Z,100555
2018-04-07T12:28:51.269Z,100549
2018-04-07T12:31:19.777Z,100545
2018-04-07T12:33:47.896Z,100554
2018-04-07T12:36:16.040Z,100557
2018-04-07T12:38:44.434Z,100548
2018-04-07T12:41:12.815Z,100535
2018-04-07T12:43:40.928Z,100535
2018-04-07T12:46:09.033Z,100534
2018-04-07T12:48:37.519Z,100526
2018-04-07T12:51:05.646Z,100537
2018-04-07T12:53:33.807Z,100521
2018-04-07T12:56:02.093Z,100521
2018-04-07T12:58:30.249Z,100519
2018-04-07T13:00:58.912Z,100513
2018-04-07T13:03:27.073Z,100509
2018-04-07T13:05:55.269Z,100513
2018-04-07T13:08:23.510Z,100508
2018-04-07T13:10:51.965Z,100510
2018-04-07T13:13:20.998Z,100506
2018-04-07T13:15:49.460Z,100510
2018-04-07T13:18:17.764Z,100493
2018-04-07T13:20:45.880Z,100492
2018-04-07T13:23:13.988Z,100494
2018-04-07T13:25:42.177Z,100492
2018-04-07T13:28:10.460Z,100479
2018-04-07T13:30:38.563Z,100482
2018-04-07T13:33:06.880Z,100478
2018-04-07T13:35:35.367Z,100482
2018-04-07T13:38:03.795Z,100478
2018-04-07T13:40:31.909Z,100477
2018-04-07T13:43:00.272Z,100472
2018-04-07T13:45:28.439Z,100458
2018-04-07T13:47:56.549Z,100464
2018-04-07T13:50:24.916Z,100458
2018-04-07T13:52:53.027Z,100454
2018-04-07T13:55:21.349Z,100463
2018-04-07T13:57:49.758Z,100457
2018-04-07T14:00:17.881Z,100452
2018-04-07T14:02:46.011Z,100463
2018-04-07T14:05:14.296Z,100445
2018-04-07T14:07:42.556Z,100460
2018-04-07T14:10:10.666Z,100452
2018-04-07T14:12:38.955Z,100461
2018-04-07T14:15:07.638Z,100454
2018-04-07T14:17:35.907Z,100468
2018-04-07T14:20:04.055Z,100457
2018-04-07T14:22:32.523Z,100456
2018-04-07T14:25:00.752Z,100446
2018-04-07T14:27:28.903Z,100450
2018-04-07T14:29:57.123Z,100443
2018-04-07T14:32:25.344Z,100443
2018-04-07T14:34:53.567Z,100444
2018-04-07T14:37:21.991Z,100429
2018-04-07T14:39:50.581Z,100431
2018-04-07T14:42:18.699Z,100426
2018-04-07T14:44:46.857Z,100419
2018-04-07T14:47:15.078Z,100423
2018-04-07T14:49:43.523Z,100415
2018-04-07T14:52:11.924Z,100415
2018-04-07T14:54:41.880Z,100405
2018-04-07T14:57:10.292Z,100404
2018-04-07T14:59:38.588Z,100406
2018-04-07T15:02:06.963Z,100404
2018-04-07T15:04:35.338Z,100396
2018-04-07T15:07:03.482Z,100388
2018-04-07T15:09:31.615Z,100391
2018-04-07T15:12:00.065Z,100387
2018-04-07T15:14:28.171Z,100385
2018-04-07T15:16:56.543Z,100396
2018-04-07T15:19:25.004Z,100387
2018-04-07T15:21:53.179Z,100396
2018-04-07T15:24:21.275Z,100391
2018-04-07T15:26:49.515Z,100391
2018-04-07T15:29:17.760Z,100388
2018-04-07T15:31:45.930Z,100388
2018-04-07T15:34:14.050Z,100384
2018-04-07T15:36:42.598Z,100388
2018-04-07T15:39:10.742Z,100391
2018-04-07T15:41:39.074Z,100388
2018-04-07T15:44:07.557Z,100389
2018-04-07T15:46:35.665Z,100395
2018-04-07T15:49:03.837Z,100397
2018-04-07T15:51:32.069Z,100383
2018-04-07T15:54:00.299Z,100382
2018-04-07T15:56:28.648Z,100384
2018-04-07T15:58:56.953Z,100387
2018-04-07T16:01:25.177Z,100391
2018-04-07T16:03:53.295Z,100382
2018-04-07T16:06:21.429Z,100382
2018-04-07T16:08:49.814Z,100380
2018-04-07T16:11:18.001Z,100379
2018-04-07T16:13:46.313Z,100375
2018-04-07T16:16:14.585Z,100382
2018-04-07T16:18:43.050Z,100379
2018-04-07T16:21:11.177Z,100376
2018-04-07T16:23:39.440Z,100386
2018-04-07T16:26:07.618Z,100393
2018-04-07T16:28:35.980Z,100384
2018-04-07T16:31:04.109Z,100387
2018-04-07T16:33:32.715Z,100384
2018-04-07T16:36:00.823Z,100388
2018-04-07T16:38:28.977Z,100383
2018-04-07T16:40:57.185Z,100383
2018-04-07T16:43:26.194Z,100387
2018-04-07T16:45:54.346Z,100383
2018-04-07T16:48:22.818Z,100384
2018-04-07T16:50:50.912Z,100392
2018-04-07T16:53:19.057Z,100387
2018-04-07T16:55:47.229Z,100377
2018-04-07T16:58:15.378Z,100380
2018-04-07T17:00:43.546Z,100376
2018-04-07T17:03:11.999Z,100364
2018-04-07T17:05:40.191Z,100359
2018-04-07T17:08:08.373Z,100355
2018-04-07T17:10:36.467Z,100360
2018-04-07T17:13:04.592Z,100356
2018-04-07T17:15:33.169Z,100362
2018-04-07T17:18:01.619Z,100352
2018-04-07T17:20:29.945Z,100349
2018-04-07T17:22:58.051Z,100343
2018-04-07T17:25:26.179Z,100343
2018-04-07T17:27:54.583Z,100344
2018-04-07T17:30:22.948Z,100348
2018-04-07T17:32:51.067Z,100343
2018-04-07T17:35:19.634Z,100340
2018-04-07T17:37:47.952Z,100345
2018-04-07T17:40:16.075Z,100343
2018-04-07T17:42:44.527Z,100320
2018-04-07T17:45:12.860Z,100321
2018-04-07T17:47:40.973Z,100330
2018-04-07T17:50:09.092Z,100319
2018-04-07T17:52:37.295Z,100330
2018-04-07T17:55:05.432Z,100321
2018-04-07T17:57:33.566Z,100335
2018-04-07T18:00:02.467Z,100317
2018-04-07T18:02:30.599Z,100313
2018-04-07T18:04:58.679Z,100309
2018-04-07T18:07:26.926Z,100317
2018-04-07T18:09:55.120Z,100319
2018-04-07T18:12:23.206Z,100319
2018-04-07T18:14:51.333Z,100331
2018-04-07T18:17:19.431Z,100333
2018-04-07T18:19:47.721Z,100333
2018-04-07T18:22:15.804Z,100335
2018-04-07T18:24:43.889Z,100335
2018-04-07T18:27:12.005Z,100339
2018-04-07T18:29:40.105Z,100347
2018-04-07T18:32:08.195Z,100343
2018-04-07T18:34:36.280Z,100343
2018-04-07T18:37:04.404Z,100345
2018-04-07T18:39:32.508Z,100346
2018-04-07T18:42:00.652Z,100337
2018-04-07T18:44:28.878Z,100345
2018-04-07T18:46:56.964Z,100349
2018-04-07T18:49:25.095Z,100351
2018-04-07T18:51:53.285Z,100346
2018-04-07T18:54:21.388Z,100359
2018-04-07T18:56:49.574Z,100357
2018-04-07T18:59:17.719Z,100355
2018-04-07T19:01:45.847Z,100363
2018-04-07T19:04:13.967Z,100355
2018-04-07T19:06:42.460Z,100362
2018-04-07T19:09:10.839Z,100339
2018-04-07T19:11:38.937Z,100378
2018-04-07T19:14:07.043Z,100377
2018-04-07T19:16:35.133Z,100383
2018-04-07T19:19:03.229Z,100374
2018-04-07T19:21:31.346Z,100376
2018-04-07T19:23:59.437Z,100360
2018-04-07T19:26:27.559Z,100378
2018-04-07T19:28:55.646Z,100376
2018-04-07T19:31:23.798Z,100373
2018-04-07T19:33:51.901Z,100366
2018-04-07T19:36:20.032Z,100367
2018-04-07T19:38:48.153Z,100378
2018-04-07T19:41:16.266Z,100374
2018-04-07T19:43:44.363Z,100376
2018-04-07T19:46:12.482Z,100380
2018-04-07T19:48:41.478Z,100368
2018-04-07T19:51:09.589Z,100366
2018-04-07T19:53:37.704Z,100369
2018-04-07T19:56:05.823Z,100379
2018-04-07T19:58:33.959Z,100379
2018-04-07T20:01:02.066Z,100391
2018-04-07T20:03:30.336Z,100378
2018-04-07T20:05:58.489Z,100381
2018-04-07T20:08:26.637Z,100385
2018-04-07T20:10:54.916Z,100390
2018-04-07T20:13:23.040Z,100378
2018-04-07T20:15:51.156Z,100375
2018-04-07T20:18:19.996Z,100379
2018-04-07T20:20:48.144Z,100365
2018-04-07T20:23:16.424Z,100364
2018-04-07T20:25:44.527Z,100367
2018-04-07T20:28:12.641Z,100367
2018-04-07T20:30:40.722Z,100347
2018-04-07T20:33:08.829Z,100349
2018-04-07T20:35:37.085Z,100356
2018-04-07T20:38:05.171Z,100349
2018-04-07T20:40:33.292Z,100335
2018-04-07T20:43:01.414Z,100343
2018-04-07T20:45:29.545Z,100334
2018-04-07T20:47:57.727Z,100336
2018-04-07T20:50:25.843Z,100337
2018-04-07T20:52:54.261Z,100340
2018-04-07T20:55:22.341Z,100336
2018-04-07T20:57:50.432Z,100343
2018-04-07T21:00:18.520Z,100350
2018-04-07T21:02:46.640Z,100343
2018-04-07T21:05:14.742Z,100349
2018-04-07T21:07:42.887Z,100341
2018-04-07T21:10:10.963Z,100356
2018-04-07T21:12:39.061Z,100351
2018-04-07T21:15:07.154Z,100352
2018-04-07T21:17:35.291Z,100340
2018-04-07T21:20:03.403Z,100341
2018-04-07T21:22:31.488Z,100341
2018-04-07T21:24:59.580Z,100333
2018-04-07T21:27:27.756Z,100337
2018-04-07T21:29:55.856Z,100335
2018-04-07T21:32:24.303Z,100332
2018-04-07T21:34:52.401Z,100320
2018-04-07T21:37:20.497Z,100335
2018-04-07T21:39:48.618Z,100332
2018-04-07T21:42:16.718Z,100331
2018-04-07T21:44:44.829Z,100321
2018-04-07T21:47:13.003Z,100334
2018-04-07T21:49:41.106Z,100326
2018-04-07T21:52:09.216Z,100315
2018-04-07T21:54:37.344Z,100323
2018-04-07T21:57:05.511Z,100323
2018-04-07T21:59:33.622Z,100325
2018-04-07T22:02:01.806Z,100335
2018-04-07T22:04:30.083Z,100326
2018-04-07T22:06:58.165Z,100331
2018-04-07T22:09:26.865Z,100333
2018-04-07T22:11:54.965Z,100344
2018-04-07T22:14:23.121Z,100336
2018-04-07T22:16:51.228Z,100334
2018-04-07T22:19:19.380Z,100339
2018-04-07T22:21:47.475Z,100340
2018-04-07T22:24:15.649Z,100343
2018-04-07T22:26:43.735Z,100334
2018-04-07T22:29:11.897Z,100331
2018-04-07T22:31:40.007Z,100332
2018-04-07T22:34:08.110Z,100332
2018-04-07T22:36:36.230Z,100323
2018-04-07T22:39:04.371Z,100325
2018-04-07T22:41:32.480Z,100318
2018-04-07T22:44:00.588Z,100320
2018-04-07T22:46:28.926Z,100322
2018-04-07T22:48:57.024Z,100315
2018-04-07T22:51:25.140Z,100326
2018-04-07T22:53:53.405Z,100314
2018-04-07T22:56:21.671Z,100321
2018-04-07T22:58:49.815Z,100320
2018-04-07T23:01:17.920Z,100316
2018-04-07T23:03:46.029Z,100319
2018-04-07T23:06:14.155Z,100311
2018-04-07T23:08:42.483Z,100309
2018-04-07T23:11:10.608Z,100309
2018-04-07T23:13:38.734Z,100315
2018-04-07T23:16:06.969Z,100312
2018-04-07T23:18:35.089Z,100307
2018-04-07T23:21:03.221Z,100302
2018-04-07T23:23:31.352Z,100307
2018-04-07T23:25:59.464Z,100298
2018-04-07T23:28:27.589Z,100299
2018-04-07T23:30:55.794Z,100298
2018-04-07T23:33:23.987Z,100309
2018-04-07T23:35:52.134Z,100304
2018-04-07T23:38:20.258Z,100301
2018-04-07T23:40:48.464Z,100304
2018-04-07T23:43:16.586Z,100296
2018-04-07T23:45:44.737Z,100294
2018-04-07T23:48:12.850Z,100297
2018-04-07T23:50:40.953Z,100290
2018-04-07T23:53:09.175Z,100284
2018-04-07T23:55:37.291Z,100287
2018-04-07T23:58:05.426Z,100301
